Terminal Aerodrome Forecast
Issued by NWS Charleston, WV

Current Version | Previous Version | Graphics & Text | Print | Product List | Glossary On
Versions: 1 2 3 4 5 6 7 8 9 10 11 12 13 14 15 16 17 18 19 20 21 22
455
FTUS41 KRLX 252333
TAFHTS
TAF
KHTS 252333Z 2600/2624 25010KT 5SM SHRA OVC009
     FM260100 26010KT P6SM SHRA OVC010
     FM260200 26009KT P6SM BKN010
     FM260400 26009KT P6SM BKN015
     FM261300 26006KT P6SM BKN035=

USA.gov is the U.S. government's official web portal to all federal, state and local government web resources and services.